sensor_id;sensor_type;location;lat;lon;timestamp;temperature;humidity
24091;DHT22;12272;52.426;17.100;2024-02-23T00:03:22;9.20;99.90
24091;DHT22;12272;52.426;17.100;2024-02-23T00:08:24;9.20;99.90
24091;DHT22;12272;52.426;17.100;2024-02-23T00:13:27;9.20;99.90
24091;DHT22;12272;52.426;17.100;2024-02-23T00:18:29;9.10;99.90
24091;DHT22;12272;52.426;17.100;2024-02-23T00:23:32;9.10;99.90
24091;DHT22;12272;52.426;17.100;2024-02-23T00:28:34;9.10;99.90
24091;DHT22;12272;52.426;17.100;2024-02-23T00:33:37;9.10;99.90
24091;DHT22;12272;52.426;17.100;2024-02-23T00:38:44;9.20;99.90
24091;DHT22;12272;52.426;17.100;2024-02-23T00:43:47;9.10;99.90
24091;DHT22;12272;52.426;17.100;2024-02-23T00:48:50;9.20;99.90
24091;DHT22;12272;52.426;17.100;2024-02-23T00:53:52;9.30;99.90
24091;DHT22;12272;52.426;17.100;2024-02-23T00:58:55;9.30;99.90
24091;DHT22;12272;52.426;17.100;2024-02-23T01:03:58;9.30;99.90
24091;DHT22;12272;52.426;17.100;2024-02-23T01:09:00;9.30;99.90
24091;DHT22;12272;52.426;17.100;2024-02-23T01:14:03;9.40;99.90
24091;DHT22;12272;52.426;17.100;2024-02-23T01:19:05;9.40;99.90
24091;DHT22;12272;52.426;17.100;2024-02-23T01:24:08;9.40;99.90
24091;DHT22;12272;52.426;17.100;2024-02-23T01:29:10;9.40;99.90
24091;DHT22;12272;52.426;17.100;2024-02-23T01:34:13;9.50;99.90
24091;DHT22;12272;52.426;17.100;2024-02-23T01:39:15;9.60;99.90
24091;DHT22;12272;52.426;17.100;2024-02-23T01:44:18;9.60;99.90
24091;DHT22;12272;52.426;17.100;2024-02-23T01:49:23;9.60;99.90
24091;DHT22;12272;52.426;17.100;2024-02-23T01:54:31;9.60;99.90
24091;DHT22;12272;52.426;17.100;2024-02-23T01:59:38;9.60;99.90
24091;DHT22;12272;52.426;17.100;2024-02-23T02:04:41;9.60;99.90
24091;DHT22;12272;52.426;17.100;2024-02-23T02:09:43;9.60;99.90
24091;DHT22;12272;52.426;17.100;2024-02-23T02:14:46;9.60;99.90
24091;DHT22;12272;52.426;17.100;2024-02-23T02:19:48;9.60;99.90
24091;DHT22;12272;52.426;17.100;2024-02-23T02:24:51;9.60;99.90
24091;DHT22;12272;52.426;17.100;2024-02-23T02:29:53;9.60;99.90
24091;DHT22;12272;52.426;17.100;2024-02-23T02:34:56;9.50;99.90
24091;DHT22;12272;52.426;17.100;2024-02-23T02:39:58;9.50;99.90
24091;DHT22;12272;52.426;17.100;2024-02-23T02:45:01;9.50;99.90
24091;DHT22;12272;52.426;17.100;2024-02-23T02:50:05;9.50;99.90
24091;DHT22;12272;52.426;17.100;2024-02-23T02:55:09;9.40;99.90
24091;DHT22;12272;52.426;17.100;2024-02-23T03:00:12;9.40;99.90
24091;DHT22;12272;52.426;17.100;2024-02-23T03:05:14;9.30;99.90
24091;DHT22;12272;52.426;17.100;2024-02-23T03:10:17;9.30;99.90
24091;DHT22;12272;52.426;17.100;2024-02-23T03:15:19;9.20;99.90
24091;DHT22;12272;52.426;17.100;2024-02-23T03:20:22;9.20;99.90
24091;DHT22;12272;52.426;17.100;2024-02-23T03:25:24;9.20;99.90
24091;DHT22;12272;52.426;17.100;2024-02-23T03:30:27;9.20;99.90
24091;DHT22;12272;52.426;17.100;2024-02-23T03:35:29;9.30;99.90
24091;DHT22;12272;52.426;17.100;2024-02-23T03:40:32;9.30;99.90
24091;DHT22;12272;52.426;17.100;2024-02-23T03:45:35;9.40;99.90
24091;DHT22;12272;52.426;17.100;2024-02-23T03:50:37;9.40;99.90
24091;DHT22;12272;52.426;17.100;2024-02-23T03:55:40;9.50;99.90
24091;DHT22;12272;52.426;17.100;2024-02-23T04:00:43;9.50;99.90
24091;DHT22;12272;52.426;17.100;2024-02-23T04:05:46;9.60;99.90
24091;DHT22;12272;52.426;17.100;2024-02-23T04:10:48;9.60;99.90
24091;DHT22;12272;52.426;17.100;2024-02-23T04:15:51;9.60;99.90
24091;DHT22;12272;52.426;17.100;2024-02-23T04:20:53;9.70;99.90
24091;DHT22;12272;52.426;17.100;2024-02-23T04:25:56;9.80;99.90
24091;DHT22;12272;52.426;17.100;2024-02-23T04:30:58;9.80;99.90
24091;DHT22;12272;52.426;17.100;2024-02-23T04:36:02;9.80;99.90
24091;DHT22;12272;52.426;17.100;2024-02-23T04:41:05;9.80;99.90
24091;DHT22;12272;52.426;17.100;2024-02-23T04:46:08;9.90;99.90
24091;DHT22;12272;52.426;17.100;2024-02-23T04:51:10;9.80;99.90
24091;DHT22;12272;52.426;17.100;2024-02-23T04:56:12;9.90;99.90
24091;DHT22;12272;52.426;17.100;2024-02-23T05:01:15;10.10;99.90
24091;DHT22;12272;52.426;17.100;2024-02-23T05:06:18;10.20;99.90
24091;DHT22;12272;52.426;17.100;2024-02-23T05:11:20;10.30;99.90
24091;DHT22;12272;52.426;17.100;2024-02-23T05:16:23;10.30;99.90
24091;DHT22;12272;52.426;17.100;2024-02-23T05:21:25;10.40;99.90
24091;DHT22;12272;52.426;17.100;2024-02-23T05:26:29;10.30;99.90
24091;DHT22;12272;52.426;17.100;2024-02-23T05:31:46;10.20;99.90
24091;DHT22;12272;52.426;17.100;2024-02-23T05:36:50;10.30;99.90
24091;DHT22;12272;52.426;17.100;2024-02-23T05:41:53;10.40;99.90
24091;DHT22;12272;52.426;17.100;2024-02-23T05:46:56;10.60;99.90
24091;DHT22;12272;52.426;17.100;2024-02-23T05:51:58;10.80;99.90
24091;DHT22;12272;52.426;17.100;2024-02-23T05:57:00;10.80;99.90
24091;DHT22;12272;52.426;17.100;2024-02-23T06:02:03;10.70;99.90
24091;DHT22;12272;52.426;17.100;2024-02-23T06:07:06;10.80;99.90
24091;DHT22;12272;52.426;17.100;2024-02-23T06:12:09;11.20;99.90
24091;DHT22;12272;52.426;17.100;2024-02-23T06:22:14;12.50;99.90
24091;DHT22;12272;52.426;17.100;2024-02-23T06:27:19;12.50;99.90
24091;DHT22;12272;52.426;17.100;2024-02-23T06:32:21;12.50;99.90
24091;DHT22;12272;52.426;17.100;2024-02-23T06:37:24;12.50;99.90
24091;DHT22;12272;52.426;17.100;2024-02-23T06:42:26;12.60;99.90
24091;DHT22;12272;52.426;17.100;2024-02-23T06:47:29;12.60;99.90
24091;DHT22;12272;52.426;17.100;2024-02-23T06:52:32;12.40;99.90
24091;DHT22;12272;52.426;17.100;2024-02-23T06:57:35;12.40;99.90
24091;DHT22;12272;52.426;17.100;2024-02-23T07:02:38;12.50;99.90
24091;DHT22;12272;52.426;17.100;2024-02-23T07:07:41;12.70;99.90
24091;DHT22;12272;52.426;17.100;2024-02-23T07:12:43;12.90;99.90
24091;DHT22;12272;52.426;17.100;2024-02-23T07:17:46;13.40;99.90
24091;DHT22;12272;52.426;17.100;2024-02-23T07:22:49;13.70;99.90
24091;DHT22;12272;52.426;17.100;2024-02-23T07:27:52;13.90;99.90
24091;DHT22;12272;52.426;17.100;2024-02-23T07:32:56;13.90;99.90
24091;DHT22;12272;52.426;17.100;2024-02-23T07:37:59;13.90;99.90
24091;DHT22;12272;52.426;17.100;2024-02-23T07:43:02;13.90;99.90
24091;DHT22;12272;52.426;17.100;2024-02-23T07:48:04;13.90;99.90
24091;DHT22;12272;52.426;17.100;2024-02-23T07:53:07;13.90;99.90
24091;DHT22;12272;52.426;17.100;2024-02-23T07:58:10;13.90;99.90
24091;DHT22;12272;52.426;17.100;2024-02-23T08:03:12;13.80;99.90
24091;DHT22;12272;52.426;17.100;2024-02-23T08:08:15;13.80;99.90
24091;DHT22;12272;52.426;17.100;2024-02-23T08:13:18;13.80;99.90
24091;DHT22;12272;52.426;17.100;2024-02-23T08:18:20;13.90;99.90
24091;DHT22;12272;52.426;17.100;2024-02-23T08:23:27;13.90;99.90
24091;DHT22;12272;52.426;17.100;2024-02-23T08:28:29;14.10;99.90
24091;DHT22;12272;52.426;17.100;2024-02-23T08:33:32;14.10;99.90
24091;DHT22;12272;52.426;17.100;2024-02-23T08:38:34;13.90;99.90
24091;DHT22;12272;52.426;17.100;2024-02-23T08:43:37;13.90;99.90
24091;DHT22;12272;52.426;17.100;2024-02-23T08:48:40;13.80;99.90
24091;DHT22;12272;52.426;17.100;2024-02-23T08:53:42;13.50;99.90
24091;DHT22;12272;52.426;17.100;2024-02-23T08:58:45;13.70;99.90
24091;DHT22;12272;52.426;17.100;2024-02-23T09:03:48;13.60;99.90
24091;DHT22;12272;52.426;17.100;2024-02-23T09:08:50;13.70;99.90
24091;DHT22;12272;52.426;17.100;2024-02-23T09:13:54;13.80;99.90
24091;DHT22;12272;52.426;17.100;2024-02-23T09:18:56;13.90;99.90
24091;DHT22;12272;52.426;17.100;2024-02-23T09:23:59;13.90;99.90
24091;DHT22;12272;52.426;17.100;2024-02-23T09:29:01;13.90;99.90
24091;DHT22;12272;52.426;17.100;2024-02-23T09:34:04;13.80;99.90
24091;DHT22;12272;52.426;17.100;2024-02-23T09:39:07;13.80;99.90
24091;DHT22;12272;52.426;17.100;2024-02-23T09:44:09;13.80;99.90
24091;DHT22;12272;52.426;17.100;2024-02-23T09:49:15;13.70;99.90
24091;DHT22;12272;52.426;17.100;2024-02-23T09:54:17;13.70;99.90
24091;DHT22;12272;52.426;17.100;2024-02-23T09:59:21;13.60;99.90
24091;DHT22;12272;52.426;17.100;2024-02-23T10:04:24;13.80;99.90
24091;DHT22;12272;52.426;17.100;2024-02-23T10:09:29;13.80;99.90
24091;DHT22;12272;52.426;17.100;2024-02-23T10:14:31;13.50;99.90
24091;DHT22;12272;52.426;17.100;2024-02-23T10:19:34;13.60;99.90
24091;DHT22;12272;52.426;17.100;2024-02-23T10:24:37;13.60;99.90
24091;DHT22;12272;52.426;17.100;2024-02-23T10:29:39;13.60;99.90
24091;DHT22;12272;52.426;17.100;2024-02-23T10:34:43;14.00;99.90
24091;DHT22;12272;52.426;17.100;2024-02-23T10:39:47;14.00;99.90
24091;DHT22;12272;52.426;17.100;2024-02-23T10:44:51;14.10;99.90
24091;DHT22;12272;52.426;17.100;2024-02-23T10:49:55;14.30;99.90
24091;DHT22;12272;52.426;17.100;2024-02-23T10:55:00;14.20;99.90
24091;DHT22;12272;52.426;17.100;2024-02-23T11:00:08;14.20;99.90
24091;DHT22;12272;52.426;17.100;2024-02-23T11:05:15;13.80;99.90
24091;DHT22;12272;52.426;17.100;2024-02-23T11:10:19;14.10;99.90
24091;DHT22;12272;52.426;17.100;2024-02-23T11:15:29;14.10;99.90
24091;DHT22;12272;52.426;17.100;2024-02-23T11:20:36;14.10;99.90
24091;DHT22;12272;52.426;17.100;2024-02-23T11:25:39;14.10;99.90
24091;DHT22;12272;52.426;17.100;2024-02-23T11:30:44;14.20;99.90
24091;DHT22;12272;52.426;17.100;2024-02-23T11:35:47;14.10;99.90
24091;DHT22;12272;52.426;17.100;2024-02-23T11:40:52;13.90;99.90
24091;DHT22;12272;52.426;17.100;2024-02-23T11:45:54;14.10;99.90
24091;DHT22;12272;52.426;17.100;2024-02-23T11:50:58;14.00;99.90
24091;DHT22;12272;52.426;17.100;2024-02-23T11:56:00;14.10;99.90
24091;DHT22;12272;52.426;17.100;2024-02-23T12:01:03;14.00;99.90
24091;DHT22;12272;52.426;17.100;2024-02-23T12:06:07;14.00;99.90
24091;DHT22;12272;52.426;17.100;2024-02-23T12:11:11;13.80;99.90
24091;DHT22;12272;52.426;17.100;2024-02-23T12:16:14;13.50;99.90
24091;DHT22;12272;52.426;17.100;2024-02-23T12:21:17;13.50;99.90
24091;DHT22;12272;52.426;17.100;2024-02-23T12:26:20;13.70;99.90
24091;DHT22;12272;52.426;17.100;2024-02-23T12:31:24;13.60;99.90
24091;DHT22;12272;52.426;17.100;2024-02-23T12:36:28;13.60;99.90
24091;DHT22;12272;52.426;17.100;2024-02-23T12:41:33;13.50;99.90
24091;DHT22;12272;52.426;17.100;2024-02-23T12:46:35;13.40;99.90
24091;DHT22;12272;52.426;17.100;2024-02-23T12:51:38;13.40;99.90
24091;DHT22;12272;52.426;17.100;2024-02-23T12:56:40;13.20;99.90
24091;DHT22;12272;52.426;17.100;2024-02-23T13:01:43;12.90;99.90
24091;DHT22;12272;52.426;17.100;2024-02-23T13:06:48;13.10;99.90
24091;DHT22;12272;52.426;17.100;2024-02-23T13:11:50;12.90;99.90
24091;DHT22;12272;52.426;17.100;2024-02-23T13:16:53;13.00;99.90
24091;DHT22;12272;52.426;17.100;2024-02-23T13:21:56;12.90;99.90
24091;DHT22;12272;52.426;17.100;2024-02-23T13:26:59;12.90;99.90
24091;DHT22;12272;52.426;17.100;2024-02-23T13:32:01;12.70;99.90
24091;DHT22;12272;52.426;17.100;2024-02-23T13:37:04;12.60;99.90
24091;DHT22;12272;52.426;17.100;2024-02-23T13:42:07;12.90;99.90
24091;DHT22;12272;52.426;17.100;2024-02-23T13:47:12;12.90;99.90
24091;DHT22;12272;52.426;17.100;2024-02-23T13:52:14;12.40;99.90
24091;DHT22;12272;52.426;17.100;2024-02-23T13:57:17;12.00;99.90
24091;DHT22;12272;52.426;17.100;2024-02-23T14:02:26;11.60;99.90
24091;DHT22;12272;52.426;17.100;2024-02-23T14:07:29;11.20;99.90
24091;DHT22;12272;52.426;17.100;2024-02-23T14:12:32;11.00;99.90
24091;DHT22;12272;52.426;17.100;2024-02-23T14:17:34;10.80;99.90
24091;DHT22;12272;52.426;17.100;2024-02-23T14:22:37;10.70;99.90
24091;DHT22;12272;52.426;17.100;2024-02-23T14:27:40;10.50;99.90
24091;DHT22;12272;52.426;17.100;2024-02-23T14:32:42;10.40;99.90
24091;DHT22;12272;52.426;17.100;2024-02-23T14:37:45;10.20;99.90
24091;DHT22;12272;52.426;17.100;2024-02-23T14:47:50;9.80;99.90
24091;DHT22;12272;52.426;17.100;2024-02-23T14:52:53;9.70;99.90
24091;DHT22;12272;52.426;17.100;2024-02-23T14:57:56;9.60;99.90
24091;DHT22;12272;52.426;17.100;2024-02-23T15:08:03;9.30;99.90
24091;DHT22;12272;52.426;17.100;2024-02-23T15:38:27;9.10;99.90
24091;DHT22;12272;52.426;17.100;2024-02-23T15:43:30;9.00;99.90
24091;DHT22;12272;52.426;17.100;2024-02-23T15:48:33;9.00;99.90
24091;DHT22;12272;52.426;17.100;2024-02-23T15:53:36;8.70;99.90
24091;DHT22;12272;52.426;17.100;2024-02-23T15:58:39;8.70;99.90
24091;DHT22;12272;52.426;17.100;2024-02-23T16:03:41;8.50;99.90
24091;DHT22;12272;52.426;17.100;2024-02-23T16:13:48;8.40;99.90
24091;DHT22;12272;52.426;17.100;2024-02-23T16:18:51;8.30;99.90
24091;DHT22;12272;52.426;17.100;2024-02-23T16:23:54;8.20;99.90
24091;DHT22;12272;52.426;17.100;2024-02-23T16:28:56;8.10;99.90
24091;DHT22;12272;52.426;17.100;2024-02-23T16:34:00;7.90;99.90
24091;DHT22;12272;52.426;17.100;2024-02-23T16:39:03;7.80;99.90
24091;DHT22;12272;52.426;17.100;2024-02-23T16:44:09;7.80;99.90
24091;DHT22;12272;52.426;17.100;2024-02-23T16:49:13;7.70;99.90
24091;DHT22;12272;52.426;17.100;2024-02-23T16:54:16;7.60;99.90
24091;DHT22;12272;52.426;17.100;2024-02-23T16:59:19;7.50;99.90
24091;DHT22;12272;52.426;17.100;2024-02-23T17:04:21;7.40;99.90
24091;DHT22;12272;52.426;17.100;2024-02-23T17:19:30;7.80;99.90
24091;DHT22;12272;52.426;17.100;2024-02-23T17:24:33;7.90;99.90
24091;DHT22;12272;52.426;17.100;2024-02-23T17:29:35;8.00;99.90
24091;DHT22;12272;52.426;17.100;2024-02-23T17:34:38;8.00;99.90
24091;DHT22;12272;52.426;17.100;2024-02-23T17:39:40;7.80;99.90
24091;DHT22;12272;52.426;17.100;2024-02-23T17:44:43;7.70;99.90
24091;DHT22;12272;52.426;17.100;2024-02-23T17:49:45;7.80;99.90
24091;DHT22;12272;52.426;17.100;2024-02-23T17:54:50;7.60;99.90
24091;DHT22;12272;52.426;17.100;2024-02-23T17:59:52;7.60;99.90
24091;DHT22;12272;52.426;17.100;2024-02-23T18:04:55;7.40;99.90
24091;DHT22;12272;52.426;17.100;2024-02-23T18:09:58;7.70;99.90
24091;DHT22;12272;52.426;17.100;2024-02-23T18:15:00;8.00;99.90
24091;DHT22;12272;52.426;17.100;2024-02-23T18:30:11;7.90;99.90
24091;DHT22;12272;52.426;17.100;2024-02-23T18:35:14;7.90;99.90
24091;DHT22;12272;52.426;17.100;2024-02-23T18:40:16;8.00;99.90
24091;DHT22;12272;52.426;17.100;2024-02-23T18:45:19;7.90;99.90
24091;DHT22;12272;52.426;17.100;2024-02-23T18:50:22;7.90;99.90
24091;DHT22;12272;52.426;17.100;2024-02-23T18:55:26;7.90;99.90
24091;DHT22;12272;52.426;17.100;2024-02-23T19:00:31;8.00;99.90
24091;DHT22;12272;52.426;17.100;2024-02-23T19:05:33;10.00;99.90
24091;DHT22;12272;52.426;17.100;2024-02-23T19:10:36;8.80;99.90
24091;DHT22;12272;52.426;17.100;2024-02-23T19:15:38;8.50;99.90
24091;DHT22;12272;52.426;17.100;2024-02-23T19:20:42;8.50;99.90
24091;DHT22;12272;52.426;17.100;2024-02-23T19:25:45;8.60;99.90
24091;DHT22;12272;52.426;17.100;2024-02-23T19:30:47;8.50;99.90
24091;DHT22;12272;52.426;17.100;2024-02-23T19:35:51;8.20;99.90
24091;DHT22;12272;52.426;17.100;2024-02-23T19:40:53;8.30;99.90
24091;DHT22;12272;52.426;17.100;2024-02-23T19:45:56;8.20;99.90
24091;DHT22;12272;52.426;17.100;2024-02-23T19:51:12;8.20;99.90
24091;DHT22;12272;52.426;17.100;2024-02-23T19:56:16;8.20;99.90
24091;DHT22;12272;52.426;17.100;2024-02-23T20:01:18;8.10;99.90
24091;DHT22;12272;52.426;17.100;2024-02-23T20:06:22;8.00;99.90
24091;DHT22;12272;52.426;17.100;2024-02-23T20:11:25;7.90;99.90
24091;DHT22;12272;52.426;17.100;2024-02-23T20:16:28;7.90;99.90
24091;DHT22;12272;52.426;17.100;2024-02-23T20:21:31;7.90;99.90
24091;DHT22;12272;52.426;17.100;2024-02-23T20:26:33;8.00;99.90
24091;DHT22;12272;52.426;17.100;2024-02-23T20:31:36;8.30;99.90
24091;DHT22;12272;52.426;17.100;2024-02-23T20:36:40;8.20;99.90
24091;DHT22;12272;52.426;17.100;2024-02-23T20:41:43;8.10;99.90
24091;DHT22;12272;52.426;17.100;2024-02-23T20:46:50;8.20;99.90
24091;DHT22;12272;52.426;17.100;2024-02-23T20:51:52;8.50;99.90
24091;DHT22;12272;52.426;17.100;2024-02-23T20:56:58;8.40;99.90
24091;DHT22;12272;52.426;17.100;2024-02-23T21:02:01;8.80;99.90
24091;DHT22;12272;52.426;17.100;2024-02-23T21:07:04;9.00;99.90
24091;DHT22;12272;52.426;17.100;2024-02-23T21:12:07;8.90;99.90
24091;DHT22;12272;52.426;17.100;2024-02-23T21:17:09;8.80;99.90
24091;DHT22;12272;52.426;17.100;2024-02-23T21:22:12;8.80;99.90
24091;DHT22;12272;52.426;17.100;2024-02-23T21:27:15;8.80;99.90
24091;DHT22;12272;52.426;17.100;2024-02-23T21:32:17;8.80;99.90
24091;DHT22;12272;52.426;17.100;2024-02-23T21:37:20;8.50;99.90
24091;DHT22;12272;52.426;17.100;2024-02-23T21:42:23;8.60;99.90
24091;DHT22;12272;52.426;17.100;2024-02-23T21:47:26;8.20;99.90
24091;DHT22;12272;52.426;17.100;2024-02-23T21:52:28;8.40;99.90
24091;DHT22;12272;52.426;17.100;2024-02-23T21:57:32;8.60;99.90
24091;DHT22;12272;52.426;17.100;2024-02-23T22:02:35;8.80;99.90
24091;DHT22;12272;52.426;17.100;2024-02-23T22:07:37;9.00;99.90
24091;DHT22;12272;52.426;17.100;2024-02-23T22:12:40;9.40;99.90
24091;DHT22;12272;52.426;17.100;2024-02-23T22:17:45;9.30;99.90
24091;DHT22;12272;52.426;17.100;2024-02-23T22:22:48;9.50;99.90
24091;DHT22;12272;52.426;17.100;2024-02-23T22:27:50;9.40;99.90
24091;DHT22;12272;52.426;17.100;2024-02-23T22:32:53;9.50;99.90
24091;DHT22;12272;52.426;17.100;2024-02-23T22:37:55;9.70;99.90
24091;DHT22;12272;52.426;17.100;2024-02-23T22:43:00;9.70;99.90
24091;DHT22;12272;52.426;17.100;2024-02-23T22:48:03;9.80;99.90
24091;DHT22;12272;52.426;17.100;2024-02-23T22:53:05;9.50;99.90
24091;DHT22;12272;52.426;17.100;2024-02-23T22:58:09;9.40;99.90
24091;DHT22;12272;52.426;17.100;2024-02-23T23:03:11;9.40;99.90
24091;DHT22;12272;52.426;17.100;2024-02-23T23:08:14;9.10;99.90
24091;DHT22;12272;52.426;17.100;2024-02-23T23:13:18;9.10;99.90
24091;DHT22;12272;52.426;17.100;2024-02-23T23:18:20;9.40;99.90
24091;DHT22;12272;52.426;17.100;2024-02-23T23:28:26;8.60;99.90
24091;DHT22;12272;52.426;17.100;2024-02-23T23:33:29;8.60;99.90
24091;DHT22;12272;52.426;17.100;2024-02-23T23:38:31;8.00;99.90
24091;DHT22;12272;52.426;17.100;2024-02-23T23:43:34;7.30;99.90
24091;DHT22;12272;52.426;17.100;2024-02-23T23:48:37;7.20;99.90
24091;DHT22;12272;52.426;17.100;2024-02-23T23:53:39;7.10;99.90
24091;DHT22;12272;52.426;17.100;2024-02-23T23:58:42;7.00;99.90
